sensor_id;sensor_type;location;lat;lon;timestamp;temperature;humidity
10530;DHT22;5313;48.834;9.228;2023-05-15T00:01:06;11.20;99.90
10530;DHT22;5313;48.834;9.228;2023-05-15T00:03:31;11.20;99.90
10530;DHT22;5313;48.834;9.228;2023-05-15T00:05:57;11.20;99.90
10530;DHT22;5313;48.834;9.228;2023-05-15T00:08:23;11.20;99.90
10530;DHT22;5313;48.834;9.228;2023-05-15T00:10:48;11.30;99.90
10530;DHT22;5313;48.834;9.228;2023-05-15T00:13:16;11.40;99.90
10530;DHT22;5313;48.834;9.228;2023-05-15T00:15:42;11.40;99.90
10530;DHT22;5313;48.834;9.228;2023-05-15T00:18:07;11.40;99.90
10530;DHT22;5313;48.834;9.228;2023-05-15T00:20:33;11.50;99.90
10530;DHT22;5313;48.834;9.228;2023-05-15T00:22:58;11.50;99.90
10530;DHT22;5313;48.834;9.228;2023-05-15T00:25:24;11.40;99.90
10530;DHT22;5313;48.834;9.228;2023-05-15T00:27:49;11.40;99.90
10530;DHT22;5313;48.834;9.228;2023-05-15T00:30:15;11.50;99.90
10530;DHT22;5313;48.834;9.228;2023-05-15T00:32:41;11.50;99.90
10530;DHT22;5313;48.834;9.228;2023-05-15T00:35:06;11.40;99.90
10530;DHT22;5313;48.834;9.228;2023-05-15T00:37:32;11.40;99.90
10530;DHT22;5313;48.834;9.228;2023-05-15T00:39:57;11.50;99.90
10530;DHT22;5313;48.834;9.228;2023-05-15T00:42:24;11.50;99.90
10530;DHT22;5313;48.834;9.228;2023-05-15T00:44:51;11.50;99.90
10530;DHT22;5313;48.834;9.228;2023-05-15T00:47:19;11.50;99.90
10530;DHT22;5313;48.834;9.228;2023-05-15T00:49:46;11.40;99.90
10530;DHT22;5313;48.834;9.228;2023-05-15T00:52:13;11.40;99.90
10530;DHT22;5313;48.834;9.228;2023-05-15T00:54:39;11.20;99.90
10530;DHT22;5313;48.834;9.228;2023-05-15T00:57:04;11.00;99.90
10530;DHT22;5313;48.834;9.228;2023-05-15T00:59:32;11.10;99.90
10530;DHT22;5313;48.834;9.228;2023-05-15T01:01:59;11.20;99.90
10530;DHT22;5313;48.834;9.228;2023-05-15T01:04:24;11.30;99.90
10530;DHT22;5313;48.834;9.228;2023-05-15T01:06:50;11.30;99.90
10530;DHT22;5313;48.834;9.228;2023-05-15T01:09:19;11.40;99.90
10530;DHT22;5313;48.834;9.228;2023-05-15T01:11:46;11.50;99.90
10530;DHT22;5313;48.834;9.228;2023-05-15T01:14:14;11.50;99.90
10530;DHT22;5313;48.834;9.228;2023-05-15T01:16:40;11.50;99.90
10530;DHT22;5313;48.834;9.228;2023-05-15T01:19:05;11.30;99.90
10530;DHT22;5313;48.834;9.228;2023-05-15T01:24:12;11.10;99.90
10530;DHT22;5313;48.834;9.228;2023-05-15T01:32:14;10.80;99.90
10530;DHT22;5313;48.834;9.228;2023-05-15T01:34:47;10.90;99.90
10530;DHT22;5313;48.834;9.228;2023-05-15T01:37:18;10.90;99.90
10530;DHT22;5313;48.834;9.228;2023-05-15T01:39:46;10.90;99.90
10530;DHT22;5313;48.834;9.228;2023-05-15T01:42:15;10.80;99.90
10530;DHT22;5313;48.834;9.228;2023-05-15T01:44:48;10.70;99.90
10530;DHT22;5313;48.834;9.228;2023-05-15T01:47:20;10.70;99.90
10530;DHT22;5313;48.834;9.228;2023-05-15T01:49:48;10.70;99.90
10530;DHT22;5313;48.834;9.228;2023-05-15T01:52:17;10.80;99.90
10530;DHT22;5313;48.834;9.228;2023-05-15T01:54:45;10.70;99.90
10530;DHT22;5313;48.834;9.228;2023-05-15T01:57:13;10.70;99.90
10530;DHT22;5313;48.834;9.228;2023-05-15T01:59:40;10.80;99.90
10530;DHT22;5313;48.834;9.228;2023-05-15T02:02:06;10.90;99.90
10530;DHT22;5313;48.834;9.228;2023-05-15T02:04:36;11.00;99.90
10530;DHT22;5313;48.834;9.228;2023-05-15T02:07:03;11.00;99.90
10530;DHT22;5313;48.834;9.228;2023-05-15T02:09:29;11.00;99.90
10530;DHT22;5313;48.834;9.228;2023-05-15T02:11:56;11.10;99.90
10530;DHT22;5313;48.834;9.228;2023-05-15T02:14:23;11.10;99.90
10530;DHT22;5313;48.834;9.228;2023-05-15T02:16:50;11.10;99.90
10530;DHT22;5313;48.834;9.228;2023-05-15T02:19:16;11.00;99.90
10530;DHT22;5313;48.834;9.228;2023-05-15T02:21:41;11.00;99.90
10530;DHT22;5313;48.834;9.228;2023-05-15T02:24:07;11.00;99.90
10530;DHT22;5313;48.834;9.228;2023-05-15T02:29:36;10.90;99.90
10530;DHT22;5313;48.834;9.228;2023-05-15T02:37:30;10.70;99.90
10530;DHT22;5313;48.834;9.228;2023-05-15T02:39:57;10.80;99.90
10530;DHT22;5313;48.834;9.228;2023-05-15T02:42:28;10.90;99.90
10530;DHT22;5313;48.834;9.228;2023-05-15T02:44:56;11.00;99.90
10530;DHT22;5313;48.834;9.228;2023-05-15T02:47:22;11.00;99.90
10530;DHT22;5313;48.834;9.228;2023-05-15T02:49:49;11.10;99.90
10530;DHT22;5313;48.834;9.228;2023-05-15T02:52:15;11.10;99.90
10530;DHT22;5313;48.834;9.228;2023-05-15T02:54:40;11.10;99.90
10530;DHT22;5313;48.834;9.228;2023-05-15T02:57:06;11.20;99.90
10530;DHT22;5313;48.834;9.228;2023-05-15T02:59:32;11.20;99.90
10530;DHT22;5313;48.834;9.228;2023-05-15T03:01:58;11.20;99.90
10530;DHT22;5313;48.834;9.228;2023-05-15T03:04:24;11.20;99.90
10530;DHT22;5313;48.834;9.228;2023-05-15T03:06:49;11.20;99.90
10530;DHT22;5313;48.834;9.228;2023-05-15T03:09:15;11.20;99.90
10530;DHT22;5313;48.834;9.228;2023-05-15T03:11:40;11.20;99.90
10530;DHT22;5313;48.834;9.228;2023-05-15T03:14:06;11.30;99.90
10530;DHT22;5313;48.834;9.228;2023-05-15T03:16:31;11.30;99.90
10530;DHT22;5313;48.834;9.228;2023-05-15T03:18:57;10.70;99.90
10530;DHT22;5313;48.834;9.228;2023-05-15T03:21:22;11.30;99.90
10530;DHT22;5313;48.834;9.228;2023-05-15T03:23:48;11.30;99.90
10530;DHT22;5313;48.834;9.228;2023-05-15T03:26:13;11.30;99.90
10530;DHT22;5313;48.834;9.228;2023-05-15T03:28:39;11.40;99.90
10530;DHT22;5313;48.834;9.228;2023-05-15T03:31:04;11.40;99.90
10530;DHT22;5313;48.834;9.228;2023-05-15T03:33:32;11.40;99.90
10530;DHT22;5313;48.834;9.228;2023-05-15T03:35:57;11.40;99.90
10530;DHT22;5313;48.834;9.228;2023-05-15T03:38:23;11.30;99.90
10530;DHT22;5313;48.834;9.228;2023-05-15T03:40:48;11.30;99.90
10530;DHT22;5313;48.834;9.228;2023-05-15T03:43:14;11.20;99.90
10530;DHT22;5313;48.834;9.228;2023-05-15T03:45:39;11.20;99.90
10530;DHT22;5313;48.834;9.228;2023-05-15T03:48:05;11.20;99.90
10530;DHT22;5313;48.834;9.228;2023-05-15T03:50:31;11.30;99.90
10530;DHT22;5313;48.834;9.228;2023-05-15T03:52:56;11.40;99.90
10530;DHT22;5313;48.834;9.228;2023-05-15T03:55:22;11.40;99.90
10530;DHT22;5313;48.834;9.228;2023-05-15T03:57:47;11.40;99.90
10530;DHT22;5313;48.834;9.228;2023-05-15T04:00:13;11.30;99.90
10530;DHT22;5313;48.834;9.228;2023-05-15T04:02:39;11.40;99.90
10530;DHT22;5313;48.834;9.228;2023-05-15T04:05:06;11.40;99.90
10530;DHT22;5313;48.834;9.228;2023-05-15T04:07:32;11.20;99.90
10530;DHT22;5313;48.834;9.228;2023-05-15T04:09:58;11.30;99.90
10530;DHT22;5313;48.834;9.228;2023-05-15T04:12:31;11.30;99.90
10530;DHT22;5313;48.834;9.228;2023-05-15T04:15:16;11.30;99.90
10530;DHT22;5313;48.834;9.228;2023-05-15T04:17:46;11.30;99.90
10530;DHT22;5313;48.834;9.228;2023-05-15T04:20:13;11.40;99.90
10530;DHT22;5313;48.834;9.228;2023-05-15T04:22:40;11.50;99.90
10530;DHT22;5313;48.834;9.228;2023-05-15T04:25:07;11.50;99.90
10530;DHT22;5313;48.834;9.228;2023-05-15T04:27:33;11.60;99.90
10530;DHT22;5313;48.834;9.228;2023-05-15T04:29:59;11.70;99.90
10530;DHT22;5313;48.834;9.228;2023-05-15T04:32:26;11.80;99.90
10530;DHT22;5313;48.834;9.228;2023-05-15T04:34:52;11.80;99.90
10530;DHT22;5313;48.834;9.228;2023-05-15T04:37:17;11.80;99.90
10530;DHT22;5313;48.834;9.228;2023-05-15T04:39:43;11.90;99.90
10530;DHT22;5313;48.834;9.228;2023-05-15T04:42:08;12.00;99.90
10530;DHT22;5313;48.834;9.228;2023-05-15T04:44:34;12.10;99.90
10530;DHT22;5313;48.834;9.228;2023-05-15T04:46:59;12.20;99.90
10530;DHT22;5313;48.834;9.228;2023-05-15T04:49:25;12.20;99.90
10530;DHT22;5313;48.834;9.228;2023-05-15T04:51:50;12.30;99.90
10530;DHT22;5313;48.834;9.228;2023-05-15T04:54:16;12.40;99.90
10530;DHT22;5313;48.834;9.228;2023-05-15T04:56:41;12.50;99.90
10530;DHT22;5313;48.834;9.228;2023-05-15T04:59:07;12.40;99.90
10530;DHT22;5313;48.834;9.228;2023-05-15T05:01:32;12.50;99.90
10530;DHT22;5313;48.834;9.228;2023-05-15T05:03:58;12.60;99.90
10530;DHT22;5313;48.834;9.228;2023-05-15T05:06:23;12.60;99.90
10530;DHT22;5313;48.834;9.228;2023-05-15T05:08:49;12.70;99.90
10530;DHT22;5313;48.834;9.228;2023-05-15T05:11:14;12.80;99.90
10530;DHT22;5313;48.834;9.228;2023-05-15T05:13:40;12.80;99.90
10530;DHT22;5313;48.834;9.228;2023-05-15T05:16:06;12.90;99.90
10530;DHT22;5313;48.834;9.228;2023-05-15T05:18:32;12.90;99.90
10530;DHT22;5313;48.834;9.228;2023-05-15T05:21:01;12.90;99.90
10530;DHT22;5313;48.834;9.228;2023-05-15T05:23:28;13.00;99.90
10530;DHT22;5313;48.834;9.228;2023-05-15T05:25:53;13.00;99.90
10530;DHT22;5313;48.834;9.228;2023-05-15T05:28:19;13.10;99.90
10530;DHT22;5313;48.834;9.228;2023-05-15T05:30:45;13.20;99.90
10530;DHT22;5313;48.834;9.228;2023-05-15T05:33:11;13.20;99.90
10530;DHT22;5313;48.834;9.228;2023-05-15T05:35:37;13.20;99.90
10530;DHT22;5313;48.834;9.228;2023-05-15T05:38:02;13.30;99.90
10530;DHT22;5313;48.834;9.228;2023-05-15T05:40:28;13.30;99.90
10530;DHT22;5313;48.834;9.228;2023-05-15T05:42:54;13.30;99.90
10530;DHT22;5313;48.834;9.228;2023-05-15T05:45:22;13.40;99.90
10530;DHT22;5313;48.834;9.228;2023-05-15T05:47:48;13.50;99.90
10530;DHT22;5313;48.834;9.228;2023-05-15T05:50:13;13.50;99.90
10530;DHT22;5313;48.834;9.228;2023-05-15T05:52:39;13.60;99.90
10530;DHT22;5313;48.834;9.228;2023-05-15T05:55:05;13.60;99.90
10530;DHT22;5313;48.834;9.228;2023-05-15T05:57:30;13.80;99.90
10530;DHT22;5313;48.834;9.228;2023-05-15T05:59:56;13.80;99.90
10530;DHT22;5313;48.834;9.228;2023-05-15T06:02:21;13.80;99.90
10530;DHT22;5313;48.834;9.228;2023-05-15T06:04:47;13.80;99.90
10530;DHT22;5313;48.834;9.228;2023-05-15T06:07:12;13.90;99.90
10530;DHT22;5313;48.834;9.228;2023-05-15T06:09:38;13.90;99.90
10530;DHT22;5313;48.834;9.228;2023-05-15T06:12:04;13.90;99.90
10530;DHT22;5313;48.834;9.228;2023-05-15T06:14:30;14.00;99.90
10530;DHT22;5313;48.834;9.228;2023-05-15T06:16:55;14.00;99.90
10530;DHT22;5313;48.834;9.228;2023-05-15T06:19:21;13.90;99.90
10530;DHT22;5313;48.834;9.228;2023-05-15T06:21:46;14.00;99.90
10530;DHT22;5313;48.834;9.228;2023-05-15T06:24:13;14.00;99.90
10530;DHT22;5313;48.834;9.228;2023-05-15T06:26:39;14.00;99.90
10530;DHT22;5313;48.834;9.228;2023-05-15T06:29:04;14.10;99.90
10530;DHT22;5313;48.834;9.228;2023-05-15T06:31:30;14.20;99.90
10530;DHT22;5313;48.834;9.228;2023-05-15T06:33:55;14.30;99.90
10530;DHT22;5313;48.834;9.228;2023-05-15T06:36:21;14.40;99.90
10530;DHT22;5313;48.834;9.228;2023-05-15T06:38:46;14.40;99.90
10530;DHT22;5313;48.834;9.228;2023-05-15T06:41:12;14.50;99.90
10530;DHT22;5313;48.834;9.228;2023-05-15T06:43:37;14.50;99.90
10530;DHT22;5313;48.834;9.228;2023-05-15T06:46:03;14.50;99.90
10530;DHT22;5313;48.834;9.228;2023-05-15T06:48:28;14.60;99.90
10530;DHT22;5313;48.834;9.228;2023-05-15T06:50:54;14.70;99.90
10530;DHT22;5313;48.834;9.228;2023-05-15T06:53:20;14.80;99.90
10530;DHT22;5313;48.834;9.228;2023-05-15T06:55:45;15.00;99.90
10530;DHT22;5313;48.834;9.228;2023-05-15T06:58:11;15.10;99.90
10530;DHT22;5313;48.834;9.228;2023-05-15T07:00:36;15.20;99.90
10530;DHT22;5313;48.834;9.228;2023-05-15T07:03:02;15.30;99.90
10530;DHT22;5313;48.834;9.228;2023-05-15T07:05:28;15.50;99.90
10530;DHT22;5313;48.834;9.228;2023-05-15T07:07:53;15.50;99.90
10530;DHT22;5313;48.834;9.228;2023-05-15T07:10:19;15.50;99.90
10530;DHT22;5313;48.834;9.228;2023-05-15T07:12:44;15.60;99.90
10530;DHT22;5313;48.834;9.228;2023-05-15T07:15:10;15.60;99.90
10530;DHT22;5313;48.834;9.228;2023-05-15T07:17:36;15.80;99.90
10530;DHT22;5313;48.834;9.228;2023-05-15T07:20:02;15.90;99.90
10530;DHT22;5313;48.834;9.228;2023-05-15T07:22:30;16.00;99.90
10530;DHT22;5313;48.834;9.228;2023-05-15T07:24:55;15.80;99.90
10530;DHT22;5313;48.834;9.228;2023-05-15T07:27:21;15.70;99.90
10530;DHT22;5313;48.834;9.228;2023-05-15T07:29:46;15.50;99.90
10530;DHT22;5313;48.834;9.228;2023-05-15T07:32:12;15.60;99.90
10530;DHT22;5313;48.834;9.228;2023-05-15T07:34:37;15.70;99.90
10530;DHT22;5313;48.834;9.228;2023-05-15T07:37:03;15.80;99.90
10530;DHT22;5313;48.834;9.228;2023-05-15T07:39:29;15.80;99.90
10530;DHT22;5313;48.834;9.228;2023-05-15T07:41:54;15.90;99.90
10530;DHT22;5313;48.834;9.228;2023-05-15T07:44:20;16.00;99.90
10530;DHT22;5313;48.834;9.228;2023-05-15T07:46:46;16.00;99.90
10530;DHT22;5313;48.834;9.228;2023-05-15T07:49:11;16.10;99.90
10530;DHT22;5313;48.834;9.228;2023-05-15T07:51:37;16.20;99.90
10530;DHT22;5313;48.834;9.228;2023-05-15T07:54:02;16.00;99.90
10530;DHT22;5313;48.834;9.228;2023-05-15T07:56:28;15.80;99.90
10530;DHT22;5313;48.834;9.228;2023-05-15T07:58:54;15.90;99.90
10530;DHT22;5313;48.834;9.228;2023-05-15T08:01:20;16.00;99.90
10530;DHT22;5313;48.834;9.228;2023-05-15T08:03:45;16.20;99.90
10530;DHT22;5313;48.834;9.228;2023-05-15T08:06:10;16.20;99.90
10530;DHT22;5313;48.834;9.228;2023-05-15T08:08:36;15.90;99.90
10530;DHT22;5313;48.834;9.228;2023-05-15T08:11:02;15.90;99.90
10530;DHT22;5313;48.834;9.228;2023-05-15T08:13:27;16.20;99.90
10530;DHT22;5313;48.834;9.228;2023-05-15T08:15:53;16.40;99.90
10530;DHT22;5313;48.834;9.228;2023-05-15T08:18:18;16.40;99.90
10530;DHT22;5313;48.834;9.228;2023-05-15T08:20:44;16.50;99.90
10530;DHT22;5313;48.834;9.228;2023-05-15T08:23:10;16.60;99.90
10530;DHT22;5313;48.834;9.228;2023-05-15T08:25:35;16.60;99.90
10530;DHT22;5313;48.834;9.228;2023-05-15T08:28:03;16.50;99.90
10530;DHT22;5313;48.834;9.228;2023-05-15T08:30:28;16.70;99.90
10530;DHT22;5313;48.834;9.228;2023-05-15T08:32:54;16.90;99.90
10530;DHT22;5313;48.834;9.228;2023-05-15T08:35:19;16.90;99.90
10530;DHT22;5313;48.834;9.228;2023-05-15T08:37:45;16.80;99.90
10530;DHT22;5313;48.834;9.228;2023-05-15T08:40:11;16.70;99.90
10530;DHT22;5313;48.834;9.228;2023-05-15T08:42:42;16.70;99.90
10530;DHT22;5313;48.834;9.228;2023-05-15T08:45:11;16.60;99.90
10530;DHT22;5313;48.834;9.228;2023-05-15T08:47:38;16.70;99.90
10530;DHT22;5313;48.834;9.228;2023-05-15T08:50:08;16.70;99.90
10530;DHT22;5313;48.834;9.228;2023-05-15T08:52:36;17.00;99.90
10530;DHT22;5313;48.834;9.228;2023-05-15T08:55:03;17.10;99.90
10530;DHT22;5313;48.834;9.228;2023-05-15T08:57:29;17.30;99.90
10530;DHT22;5313;48.834;9.228;2023-05-15T08:59:56;17.30;99.90
10530;DHT22;5313;48.834;9.228;2023-05-15T09:02:21;17.40;99.90
10530;DHT22;5313;48.834;9.228;2023-05-15T09:04:49;17.60;99.90
10530;DHT22;5313;48.834;9.228;2023-05-15T09:07:15;17.70;99.90
10530;DHT22;5313;48.834;9.228;2023-05-15T09:09:43;17.80;99.90
10530;DHT22;5313;48.834;9.228;2023-05-15T09:12:14;17.70;99.90
10530;DHT22;5313;48.834;9.228;2023-05-15T09:14:40;17.90;99.90
10530;DHT22;5313;48.834;9.228;2023-05-15T09:17:06;17.90;99.90
10530;DHT22;5313;48.834;9.228;2023-05-15T09:19:33;17.70;99.90
10530;DHT22;5313;48.834;9.228;2023-05-15T09:22:16;17.70;99.90
10530;DHT22;5313;48.834;9.228;2023-05-15T09:24:43;18.30;99.90
10530;DHT22;5313;48.834;9.228;2023-05-15T09:27:09;18.30;99.90
10530;DHT22;5313;48.834;9.228;2023-05-15T09:29:37;18.00;99.90
10530;DHT22;5313;48.834;9.228;2023-05-15T09:34:30;17.50;99.90
10530;DHT22;5313;48.834;9.228;2023-05-15T09:36:57;17.30;99.90
10530;DHT22;5313;48.834;9.228;2023-05-15T09:39:23;17.30;99.90
10530;DHT22;5313;48.834;9.228;2023-05-15T09:41:49;17.60;99.90
10530;DHT22;5313;48.834;9.228;2023-05-15T09:44:25;17.70;99.90
10530;DHT22;5313;48.834;9.228;2023-05-15T09:46:51;17.80;99.90
10530;DHT22;5313;48.834;9.228;2023-05-15T09:49:18;18.20;99.90
10530;DHT22;5313;48.834;9.228;2023-05-15T09:51:43;18.40;99.90
10530;DHT22;5313;48.834;9.228;2023-05-15T09:54:19;18.70;99.90
10530;DHT22;5313;48.834;9.228;2023-05-15T09:56:47;18.80;99.90
10530;DHT22;5313;48.834;9.228;2023-05-15T09:59:15;18.60;99.90
10530;DHT22;5313;48.834;9.228;2023-05-15T10:01:45;18.90;99.90
10530;DHT22;5313;48.834;9.228;2023-05-15T10:04:11;19.10;99.90
10530;DHT22;5313;48.834;9.228;2023-05-15T10:06:43;18.70;99.90
10530;DHT22;5313;48.834;9.228;2023-05-15T10:09:10;18.90;99.90
10530;DHT22;5313;48.834;9.228;2023-05-15T10:11:45;19.30;99.90
10530;DHT22;5313;48.834;9.228;2023-05-15T10:14:12;19.80;99.90
10530;DHT22;5313;48.834;9.228;2023-05-15T10:16:39;19.60;99.90
10530;DHT22;5313;48.834;9.228;2023-05-15T10:19:10;19.60;99.90
10530;DHT22;5313;48.834;9.228;2023-05-15T10:21:38;20.00;99.90
10530;DHT22;5313;48.834;9.228;2023-05-15T10:24:04;20.50;99.90
10530;DHT22;5313;48.834;9.228;2023-05-15T10:26:40;20.60;99.90
10530;DHT22;5313;48.834;9.228;2023-05-15T10:29:15;20.80;99.90
10530;DHT22;5313;48.834;9.228;2023-05-15T10:31:41;20.10;99.90
10530;DHT22;5313;48.834;9.228;2023-05-15T10:34:21;20.00;99.90
10530;DHT22;5313;48.834;9.228;2023-05-15T10:36:51;20.30;99.90
10530;DHT22;5313;48.834;9.228;2023-05-15T10:39:17;20.10;99.90
10530;DHT22;5313;48.834;9.228;2023-05-15T10:41:46;20.20;99.90
10530;DHT22;5313;48.834;9.228;2023-05-15T10:44:17;20.50;99.90
10530;DHT22;5313;48.834;9.228;2023-05-15T10:46:46;20.50;99.90
10530;DHT22;5313;48.834;9.228;2023-05-15T10:51:51;20.80;99.90
10530;DHT22;5313;48.834;9.228;2023-05-15T10:54:28;20.20;99.90
10530;DHT22;5313;48.834;9.228;2023-05-15T10:57:05;20.30;99.90
10530;DHT22;5313;48.834;9.228;2023-05-15T10:59:35;20.70;99.90
10530;DHT22;5313;48.834;9.228;2023-05-15T11:02:41;20.70;99.90
10530;DHT22;5313;48.834;9.228;2023-05-15T11:05:28;21.00;99.90
10530;DHT22;5313;48.834;9.228;2023-05-15T11:10:46;19.30;99.90
10530;DHT22;5313;48.834;9.228;2023-05-15T11:13:18;19.10;99.90
10530;DHT22;5313;48.834;9.228;2023-05-15T11:15:57;19.10;99.90
10530;DHT22;5313;48.834;9.228;2023-05-15T11:18:26;19.30;99.90
10530;DHT22;5313;48.834;9.228;2023-05-15T11:23:25;20.00;99.90
10530;DHT22;5313;48.834;9.228;2023-05-15T11:25:59;20.80;99.90
10530;DHT22;5313;48.834;9.228;2023-05-15T11:28:28;21.10;99.90
10530;DHT22;5313;48.834;9.228;2023-05-15T11:31:06;21.10;99.90
10530;DHT22;5313;48.834;9.228;2023-05-15T11:33:32;21.80;99.90
10530;DHT22;5313;48.834;9.228;2023-05-15T11:36:05;22.30;99.90
10530;DHT22;5313;48.834;9.228;2023-05-15T11:38:38;22.40;99.90
10530;DHT22;5313;48.834;9.228;2023-05-15T11:41:18;22.40;99.80
10530;DHT22;5313;48.834;9.228;2023-05-15T11:44:00;22.40;98.30
10530;DHT22;5313;48.834;9.228;2023-05-15T11:46:35;22.00;99.80
10530;DHT22;5313;48.834;9.228;2023-05-15T11:49:14;21.60;99.90
10530;DHT22;5313;48.834;9.228;2023-05-15T11:51:53;21.10;99.90
10530;DHT22;5313;48.834;9.228;2023-05-15T11:54:20;21.90;99.90
10530;DHT22;5313;48.834;9.228;2023-05-15T11:56:51;22.60;99.20
10530;DHT22;5313;48.834;9.228;2023-05-15T11:59:25;22.80;97.70
10530;DHT22;5313;48.834;9.228;2023-05-15T12:01:58;23.20;94.00
10530;DHT22;5313;48.834;9.228;2023-05-15T12:04:33;23.20;92.90
10530;DHT22;5313;48.834;9.228;2023-05-15T12:07:03;22.50;95.70
10530;DHT22;5313;48.834;9.228;2023-05-15T12:09:38;21.40;95.70
10530;DHT22;5313;48.834;9.228;2023-05-15T12:12:14;21.00;97.60
10530;DHT22;5313;48.834;9.228;2023-05-15T12:15:00;20.70;98.60
10530;DHT22;5313;48.834;9.228;2023-05-15T12:17:36;20.80;99.00
10530;DHT22;5313;48.834;9.228;2023-05-15T12:20:06;21.00;97.90
10530;DHT22;5313;48.834;9.228;2023-05-15T12:22:41;21.60;96.30
10530;DHT22;5313;48.834;9.228;2023-05-15T12:25:12;21.20;99.00
10530;DHT22;5313;48.834;9.228;2023-05-15T12:27:49;20.60;99.70
10530;DHT22;5313;48.834;9.228;2023-05-15T12:30:18;19.90;99.90
10530;DHT22;5313;48.834;9.228;2023-05-15T12:32:50;19.80;99.90
10530;DHT22;5313;48.834;9.228;2023-05-15T12:35:21;19.70;99.90
10530;DHT22;5313;48.834;9.228;2023-05-15T12:37:47;19.70;99.90
10530;DHT22;5313;48.834;9.228;2023-05-15T12:40:13;19.40;99.90
10530;DHT22;5313;48.834;9.228;2023-05-15T12:43:06;19.00;99.90
10530;DHT22;5313;48.834;9.228;2023-05-15T12:45:38;18.50;99.90
10530;DHT22;5313;48.834;9.228;2023-05-15T12:48:21;18.30;99.90
10530;DHT22;5313;48.834;9.228;2023-05-15T12:50:50;18.10;99.90
10530;DHT22;5313;48.834;9.228;2023-05-15T12:53:20;18.30;99.90
10530;DHT22;5313;48.834;9.228;2023-05-15T12:55:47;19.00;99.90
10530;DHT22;5313;48.834;9.228;2023-05-15T12:58:17;19.10;99.90
10530;DHT22;5313;48.834;9.228;2023-05-15T13:01:06;19.40;99.90
10530;DHT22;5313;48.834;9.228;2023-05-15T13:03:33;19.50;99.90
10530;DHT22;5313;48.834;9.228;2023-05-15T13:06:04;19.30;99.90
10530;DHT22;5313;48.834;9.228;2023-05-15T13:08:56;19.40;99.90
10530;DHT22;5313;48.834;9.228;2023-05-15T13:11:37;19.50;99.90
10530;DHT22;5313;48.834;9.228;2023-05-15T13:14:15;20.00;99.90
10530;DHT22;5313;48.834;9.228;2023-05-15T13:16:47;19.80;99.90
10530;DHT22;5313;48.834;9.228;2023-05-15T13:19:17;19.70;99.90
10530;DHT22;5313;48.834;9.228;2023-05-15T13:21:47;19.40;99.90
10530;DHT22;5313;48.834;9.228;2023-05-15T13:24:28;19.40;99.90
10530;DHT22;5313;48.834;9.228;2023-05-15T13:26:57;19.90;99.90
10530;DHT22;5313;48.834;9.228;2023-05-15T13:29:26;20.20;99.90
10530;DHT22;5313;48.834;9.228;2023-05-15T13:31:56;20.90;99.90
10530;DHT22;5313;48.834;9.228;2023-05-15T13:34:27;20.80;99.90
10530;DHT22;5313;48.834;9.228;2023-05-15T13:36:54;20.30;99.90
10530;DHT22;5313;48.834;9.228;2023-05-15T13:39:49;20.00;99.90
10530;DHT22;5313;48.834;9.228;2023-05-15T13:42:15;19.50;99.90
10530;DHT22;5313;48.834;9.228;2023-05-15T13:44:47;19.30;99.90
10530;DHT22;5313;48.834;9.228;2023-05-15T13:47:20;19.10;99.90
10530;DHT22;5313;48.834;9.228;2023-05-15T13:49:57;19.00;99.90
10530;DHT22;5313;48.834;9.228;2023-05-15T13:52:31;19.20;99.90
10530;DHT22;5313;48.834;9.228;2023-05-15T13:55:03;19.20;99.90
10530;DHT22;5313;48.834;9.228;2023-05-15T13:57:43;19.60;99.90
10530;DHT22;5313;48.834;9.228;2023-05-15T14:00:13;19.90;99.90
10530;DHT22;5313;48.834;9.228;2023-05-15T14:02:50;19.90;99.90
10530;DHT22;5313;48.834;9.228;2023-05-15T14:05:24;19.90;99.90
10530;DHT22;5313;48.834;9.228;2023-05-15T14:08:08;20.20;99.90
10530;DHT22;5313;48.834;9.228;2023-05-15T14:10:38;20.00;99.90
10530;DHT22;5313;48.834;9.228;2023-05-15T14:13:04;20.20;99.90
10530;DHT22;5313;48.834;9.228;2023-05-15T14:15:31;20.40;99.90
10530;DHT22;5313;48.834;9.228;2023-05-15T14:18:05;20.10;99.90
10530;DHT22;5313;48.834;9.228;2023-05-15T14:20:38;19.80;99.90
10530;DHT22;5313;48.834;9.228;2023-05-15T14:23:06;19.70;99.90
10530;DHT22;5313;48.834;9.228;2023-05-15T14:25:37;19.60;99.90
10530;DHT22;5313;48.834;9.228;2023-05-15T14:28:23;19.50;99.90
10530;DHT22;5313;48.834;9.228;2023-05-15T14:30:49;19.60;99.90
10530;DHT22;5313;48.834;9.228;2023-05-15T14:33:18;19.60;99.90
10530;DHT22;5313;48.834;9.228;2023-05-15T14:35:53;19.60;99.90
10530;DHT22;5313;48.834;9.228;2023-05-15T14:38:19;19.60;99.90
10530;DHT22;5313;48.834;9.228;2023-05-15T14:40:44;19.50;99.90
10530;DHT22;5313;48.834;9.228;2023-05-15T14:43:10;19.70;99.90
10530;DHT22;5313;48.834;9.228;2023-05-15T14:45:35;19.80;99.90
10530;DHT22;5313;48.834;9.228;2023-05-15T14:48:01;19.90;99.90
10530;DHT22;5313;48.834;9.228;2023-05-15T14:50:27;20.20;99.90
10530;DHT22;5313;48.834;9.228;2023-05-15T14:52:52;20.30;99.90
10530;DHT22;5313;48.834;9.228;2023-05-15T14:55:18;21.00;99.90
10530;DHT22;5313;48.834;9.228;2023-05-15T14:57:47;22.10;99.90
10530;DHT22;5313;48.834;9.228;2023-05-15T15:00:16;21.80;99.90
10530;DHT22;5313;48.834;9.228;2023-05-15T15:02:42;20.70;99.90
10530;DHT22;5313;48.834;9.228;2023-05-15T15:05:08;19.70;99.90
10530;DHT22;5313;48.834;9.228;2023-05-15T15:07:56;19.40;99.90
10530;DHT22;5313;48.834;9.228;2023-05-15T15:10:22;18.80;99.90
10530;DHT22;5313;48.834;9.228;2023-05-15T15:12:50;18.00;99.90
10530;DHT22;5313;48.834;9.228;2023-05-15T15:15:16;17.60;99.90
10530;DHT22;5313;48.834;9.228;2023-05-15T15:17:41;17.40;99.90
10530;DHT22;5313;48.834;9.228;2023-05-15T15:20:07;16.90;99.90
10530;DHT22;5313;48.834;9.228;2023-05-15T15:22:33;16.60;99.90
10530;DHT22;5313;48.834;9.228;2023-05-15T15:24:59;16.30;99.90
10530;DHT22;5313;48.834;9.228;2023-05-15T15:27:25;16.10;99.90
10530;DHT22;5313;48.834;9.228;2023-05-15T15:29:51;16.00;99.90
10530;DHT22;5313;48.834;9.228;2023-05-15T15:32:16;15.90;99.90
10530;DHT22;5313;48.834;9.228;2023-05-15T15:34:42;15.90;99.90
10530;DHT22;5313;48.834;9.228;2023-05-15T15:37:08;15.80;99.90
10530;DHT22;5313;48.834;9.228;2023-05-15T15:39:34;15.70;99.90
10530;DHT22;5313;48.834;9.228;2023-05-15T15:41:59;15.60;99.90
10530;DHT22;5313;48.834;9.228;2023-05-15T15:44:24;15.30;99.90
10530;DHT22;5313;48.834;9.228;2023-05-15T15:46:50;15.10;99.90
10530;DHT22;5313;48.834;9.228;2023-05-15T15:49:15;15.00;99.90
10530;DHT22;5313;48.834;9.228;2023-05-15T15:51:41;15.00;99.90
10530;DHT22;5313;48.834;9.228;2023-05-15T15:54:06;15.10;99.90
10530;DHT22;5313;48.834;9.228;2023-05-15T15:56:32;15.00;99.90
10530;DHT22;5313;48.834;9.228;2023-05-15T15:58:57;15.10;99.90
10530;DHT22;5313;48.834;9.228;2023-05-15T16:01:23;15.00;99.90
10530;DHT22;5313;48.834;9.228;2023-05-15T16:03:48;15.00;99.90
10530;DHT22;5313;48.834;9.228;2023-05-15T16:06:14;15.20;99.90
10530;DHT22;5313;48.834;9.228;2023-05-15T16:08:40;15.30;99.90
10530;DHT22;5313;48.834;9.228;2023-05-15T16:11:05;15.40;99.90
10530;DHT22;5313;48.834;9.228;2023-05-15T16:13:31;16.30;99.90
10530;DHT22;5313;48.834;9.228;2023-05-15T16:15:57;15.60;99.90
10530;DHT22;5313;48.834;9.228;2023-05-15T16:18:22;15.70;99.90